Juneau, WI

5:41 PM CST en Diciembre 20, 2014 (GMT -0600)
Dodge County | Change Station
CLOSE
Current Station
Aeropuerto
Location: Juneau,
Altura: 935 ft
Estaciones meteorológicas cercanas

Alt 935 ft 43.43 °N, 88.70 °W | Updated 26 minutes ago

Overcast
Nublado
28 ° F
Sensación térmica 22 ° F
N
6
Viento Variable Viento desde SE

Hoy
Alta -- | Baja -- ° F
--% Posibilidad de precipitaciones
Ayer
Alta -- | Baja -- ° F
Precip. -- pul
7:23 AM 4:21 PM
Creciente menguante, 2% visible
Presión 30.23 pul
Visibilidad 7.0 Millas
Nubes Nubes dispersas 1800 ft
Nubes dispersas 3500 ft
Nublado 6000 ft
Vientos helados 22 ° F
Punto de rocío 26 ° F
Humedad 90%
Precipitaciones 0.00 pul
Espesor de la nieve No disponible.
UV 0 de una escala de 12
Polen .10 de una escala de 12
Calidad del aire No disponible.
Flu Activity No disponible.
METAR KUNU 202315Z AUTO 14005KT 7SM SCT018 SCT035 OVC060 M02/M03 A3023 RMK AO2 T10201035

More Conditions Fewer Conditions

Presión 30.23 pul
Visibilidad 7.0 Millas
Nubes Nubes dispersas 1800 ft
Nubes dispersas 3500 ft
Nublado 6000 ft
Vientos helados 22 ° F
Punto de rocío 26 ° F
Humedad 90%
Precipitaciones 0.00 pul
Espesor de la nieve No disponible.
UV 0 de una escala de 12
Polen .10 de una escala de 12
Calidad del aire No disponible.
Flu Activity No disponible.
METAR KUNU 202315Z AUTO 14005KT 7SM SCT018 SCT035 OVC060 M02/M03 A3023 RMK AO2 T10201035

More Conditions Fewer Conditions

10-Day Weather Forecast

Almanac

Astronomía

Dec. 20, 2014 Salida Puesta
Hora real
Crepúsculo civil
Crepúsculo náutico
Crepúsculo astronómico
Luna
Horas de luz
Horas de luz
Tomorrow will be .
, % of the Moon is Illuminated

Extremos de hoy

Máximos del estado Bajos del estado

Community

WunderPhotos

Upload Photos

1,779,319 ¡fotos cargadas!

WunderBlogs® & News

Nearby

Calidad del aire

  Calidad del aire Índice AQ Contaminante
Not available.

Grosos de nieve

Estación Profundido Altura

Actividad de terremotos

Ciudad Distance Mag. Tiempo y dato
Magnitud mínima muestra es 2,5.

Temperaturas de aguas costeras

Lugar Temperatura

Estaciones meteorológicas cercanas